Terminal Aerodrome Forecast
Issued by NWS

Home | Current Version | Previous Version | Text Only | Print | Product List | Glossary On
Versions: 1 2 3 4 5 6 7 8 9 10 11 12 13 14 15 16 17 18 19 20 21 22 23 24 25 26 27 28 29 30 31 32 33 34 35
000
FTUS43 KGRB 231700
TAFRHI
TAF
KRHI 231732Z 2318/2418 03005KT P6SM BKN040
     FM232300 36005KT P6SM SCT040
     FM240900 00000KT 1/2SM FG SKC
     FM241200 25004KT 5SM BR SKC
      TEMPO 2412/2414 2SM BR
     FM241400 25005KT P6SM SCT200=

USA.gov is the U.S. government's official web portal to all federal, state and local government web resources and services.